Flight Track Log - Related Links

Times and Time Zones

All times are in EST time to prevent confusion due to time zone crossing. See the N2876Q flight status page for this flight to view local times or setup timezone preferences in your user account.

Time Position Orientation Groundspeed Altitude Reporting Facility
EST Latitude Longitude Course Direction KTS MPH feet Rate Location/Type
Sat 09:21:20 AM 35.2833 -89.1833 79° East 113 130 3,400  Level KMEM
Sat 09:22:34 AM 35.2911 -89.1361 79° East 130 150 3,500 45 Climbing Memphis Center
Sat 09:23:34 AM 35.3033 -89.1003 67° East 120 138 3,500  Level Memphis Center
Sat 09:24:34 AM 35.3175 -89.0644 64° Northeast 114 131 3,500  Level Memphis Center
Sat 09:25:34 AM 35.3319 -89.0286 64° Northeast 114 131 3,500  Level Memphis Center
Sat 09:26:34 AM 35.3439 -88.9903 69° East 114 131 3,500  Level Memphis Center
Sat 09:27:34 AM 35.3581 -88.9542 64° Northeast 114 131 3,500  Level Memphis Center
Sat 09:28:34 AM 35.3681 -88.9158 72° East 109 125 3,500  Level Memphis Center
Sat 09:29:34 AM 35.3803 -88.8800 67° East 109 125 3,500  Level Memphis Center
Sat 09:30:34 AM 35.3944 -88.8467 62° Northeast 114 131 3,500  Level Memphis Center
Sat 09:31:34 AM 35.4064 -88.8056 70° East 114 131 3,500  Level Memphis Center
Sat 09:32:34 AM 35.4164 -88.7725 70° East 114 131 3,500  Level Memphis Center
Sat 09:33:34 AM 35.4242 -88.7342 76° East 109 125 3,500  Level Memphis Center
Sat 09:34:34 AM 35.4364 -88.6956 69° East 109 125 3,500  Level Memphis Center
Sat 09:35:34 AM 35.4461 -88.6597 72° East 109 125 3,500  Level Memphis Center
Sat 09:36:34 AM 35.4583 -88.6211 69° East 109 125 3,500  Level Memphis Center
Sat 09:37:34 AM 35.4681 -88.5828 73° East 109 125 3,500  Level Memphis Center
Sat 09:38:34 AM 35.4758 -88.5469 75° East 109 125 3,500  Level Memphis Center
Sat 09:39:34 AM 35.4836 -88.5058 77° East 109 125 3,500  Level Memphis Center
Sat 09:40:34 AM 35.4914 -88.4675 76° East 109 125 3,500 50 Level Memphis Center
Sat 09:41:34 AM 35.4950 -88.4342 82° East 104 120 3,600  Climbing Memphis Center
Sat 09:42:34 AM 35.5028 -88.3933 77° East 109 125 3,500 -50 Descending Memphis Center
Sat 09:43:34 AM 35.5086 -88.3625 77° East 109 125 3,500 100 Level Memphis Center
Sat 09:44:34 AM 35.5267 -88.3214 62° Northeast 109 125 3,700 150 Climbing Memphis Center
Sat 09:45:34 AM 35.5386 -88.2853 68° East 114 131 3,800  Climbing Memphis Center
Sat 09:46:34 AM 35.5525 -88.2517 63° Northeast 114 131 3,700 -50 Descending Memphis Center
Sat 09:47:34 AM 35.5667 -88.2131 66° East 114 131 3,700  Level Memphis Center
Sat 09:48:34 AM 35.5806 -88.1797 63° Northeast 114 131 3,700  Level Memphis Center
Sat 09:49:34 AM 35.5906 -88.1511 67° East 109 125 3,700  Level Memphis Center
Sat 09:50:34 AM 35.6022 -88.1153 68° East 104 120 3,700  Level Memphis Center
Sat 09:51:34 AM 35.6122 -88.0817 70° East 109 125 3,700  Level Memphis Center
Sat 09:52:34 AM 35.6261 -88.0481 63° Northeast 116 133 3,700  Level Memphis Center
Sat 09:53:34 AM 35.6400 -88.0094 66° East 109 125 3,700  Level Memphis Center
Sat 09:54:34 AM 35.6539 -87.9758 63° Northeast 109 125 3,700  Level Memphis Center
Sat 09:55:34 AM 35.6658 -87.9372 69° East 109 125 3,700  Level Memphis Center
Sat 09:56:34 AM 35.6778 -87.9061 65° Northeast 109 125 3,700  Level Memphis Center
Sat 09:57:34 AM 35.6894 -87.8675 70° East 109 125 3,700  Level Memphis Center
Sat 09:58:34 AM 35.7011 -87.8339 67° East 109 125 3,700  Level Memphis Center
Sat 09:59:34 AM 35.7150 -87.7975 65° Northeast 114 131 3,700  Level Memphis Center
Sat 10:00:34 AM 35.7289 -87.7614 65° Northeast 114 131 3,700  Level Memphis Center
Sat 10:01:34 AM 35.7406 -87.7253 68° East 114 131 3,700  Level Memphis Center
Sat 10:02:34 AM 35.7525 -87.6892 68° East 114 131 3,700  Level Memphis Center
Sat 10:03:34 AM 35.7661 -87.6503 67° East 114 131 3,700  Level Memphis Center
Sat 10:04:34 AM 35.7781 -87.6192 65° Northeast 114 131 3,700  Level Memphis Center
Sat 10:05:34 AM 35.7897 -87.5856 67° East 114 131 3,700  Level Memphis Center
Sat 10:06:34 AM 35.8036 -87.5492 65° Northeast 114 131 3,700  Level Memphis Center
Sat 10:07:34 AM 35.8153 -87.5103 70° East 114 131 3,700  Level Memphis Center
Sat 10:08:34 AM 35.8311 -87.4739 62° Northeast 114 131 3,700  Level Memphis Center
Sat 10:09:34 AM 35.8428 -87.4403 67° East 114 131 3,700  Level Memphis Center
Sat 10:10:34 AM 35.8564 -87.4039 65° Northeast 114 131 3,700  Level Memphis Center
Sat 10:11:34 AM 35.8700 -87.3650 67° East 114 131 3,700  Level Memphis Center
Sat 10:12:34 AM 35.8817 -87.3286 68° East 114 131 3,700  Level Memphis Center
Sat 10:13:34 AM 35.8975 -87.2947 60° Northeast 114 131 3,700  Level Memphis Center
Sat 10:14:34 AM 35.9175 -87.2608 54° Northeast 114 131 3,700  Level Memphis Center
Sat 10:15:34 AM 35.9419 -87.2317 44° Northeast 114 131 3,700  Level Memphis Center
Sat 10:16:34 AM 35.9619 -87.2028 49° Northeast 114 131 3,700  Level Memphis Center
Sat 10:17:34 AM 35.9842 -87.1711 49° Northeast 120 138 3,700  Level Memphis Center
Sat 10:18:34 AM 36.0064 -87.1419 47° Northeast 120 138 3,700 -50 Level Memphis Center
Sat 10:19:34 AM 36.0306 -87.1128 44° Northeast 120 138 3,600 -100 Descending Memphis Center
Sat 10:20:34 AM 36.0486 -87.0889 47° Northeast 120 138 3,500 30 Descending Memphis Center
Sat 10:22:54 AM 36.1000 -87.0167 49° Northeast 115 132 3,700  Climbing Nashville TRACON
Sat 10:23:48 AM 36.1167 -86.9833 58° Northeast 114 131 3,500 -300 Descending Nashville TRACON
Sat 10:24:54 AM 36.1500 -86.9500 39° Northeast 125 144 3,100 -238 Descending Nashville TRACON
Sat 10:25:54 AM 36.1667 -86.9333 39° Northeast 106 122 3,000 -48 Descending Nashville TRACON
Sat 10:27:00 AM 36.1833 -86.9000 58° Northeast 94 108 3,000  Level Nashville TRACON
Sat 10:27:37 AM 36.1833 -86.8667 90° East 96 110 3,000  Level Nashville TRACON
Sat 10:28:37 AM 36.1833 -86.8333 90° East 101 116 3,000 -48 Level Nashville TRACON
Sat 10:29:43 AM 36.2000 -86.8000 58° Northeast 103 119 2,900 -333 Descending Nashville TRACON
Sat 10:30:43 AM 36.2000 -86.7667 90° East 97 112 2,300 -450 Descending Nashville TRACON
Sat 10:31:43 AM 36.1833 -86.7500 141° Southeast 67 77 2,000 -263 Descending Nashville TRACON
Sat 10:32:37 AM 36.1667 -86.7333 141° Southeast 62 71 1,800 -263 Descending Nashville TRACON
Sat 10:33:37 AM 36.1667 -86.7167 90° East 62 71 1,500 -368 Descending Nashville TRACON
Sat 10:34:31 AM 36.1500 -86.7000 141° Southeast 66 76 1,100 -444 Descending Nashville TRACON
Sat 10:36:00 AM 36.1245 -86.6782 73° East  Level Estimated
Sat 10:43:00 AM 36.1245 -86.6782 73° East  Level Estimated
Sat 10:44:00 AM 36.1245 -86.6782 73° East  Level Estimated
Sat 10:45:00 AM 36.1245 -86.6782 73° East  Level Estimated

Login

Don't have an account? Register now (free) for customized features, flight alerts, and more!